createdAt,value
2022-11-25T00:02:01.731Z,43.90
2022-11-25T00:04:34.386Z,41.20
2022-11-25T00:07:03.273Z,39.90
2022-11-25T00:09:31.549Z,45.70
2022-11-25T00:11:59.853Z,40.20
2022-11-25T00:14:28.087Z,40.00
2022-11-25T00:16:56.448Z,36.50
2022-11-25T00:19:24.666Z,39.30
2022-11-25T00:21:52.888Z,38.10
2022-11-25T00:24:21.136Z,38.70
2022-11-25T00:26:49.396Z,38.40
2022-11-25T00:29:18.047Z,38.00
2022-11-25T00:31:46.477Z,37.20
2022-11-25T00:34:15.541Z,38.30
2022-11-25T00:36:44.380Z,39.60
2022-11-25T00:39:15.343Z,39.30
2022-11-25T00:42:03.097Z,38.70
2022-11-25T00:44:40.425Z,38.90
2022-11-25T00:47:16.525Z,37.70
2022-11-25T00:49:50.803Z,37.80
2022-11-25T00:52:22.472Z,37.40
2022-11-25T00:54:51.687Z,39.40
2022-11-25T00:57:22.431Z,40.60
2022-11-25T00:59:51.164Z,36.60
2022-11-25T01:02:23.317Z,37.90
2022-11-25T01:04:51.735Z,41.10
2022-11-25T01:07:20.197Z,37.80
2022-11-25T01:09:49.289Z,42.60
2022-11-25T01:12:17.912Z,37.30
2022-11-25T01:14:46.283Z,36.80
2022-11-25T01:17:15.978Z,35.80
2022-11-25T01:19:44.338Z,37.10
2022-11-25T01:22:12.568Z,35.70
2022-11-25T01:24:44.331Z,35.10
2022-11-25T01:27:12.586Z,35.40
2022-11-25T01:29:43.091Z,35.70
2022-11-25T01:32:11.365Z,35.10
2022-11-25T01:34:40.219Z,38.20
2022-11-25T01:37:08.387Z,38.60
2022-11-25T01:39:36.788Z,38.60
2022-11-25T01:42:05.007Z,39.20
2022-11-25T01:44:36.098Z,38.50
2022-11-25T01:47:20.906Z,36.60
2022-11-25T01:50:03.892Z,37.10
2022-11-25T01:52:36.940Z,37.80
2022-11-25T01:55:14.524Z,35.20
2022-11-25T01:57:53.839Z,36.70
2022-11-25T02:00:22.380Z,38.50
2022-11-25T02:02:53.959Z,37.00
2022-11-25T02:05:33.979Z,37.80
2022-11-25T02:08:04.699Z,46.20
2022-11-25T02:10:35.059Z,48.00
2022-11-25T02:13:05.100Z,45.60
2022-11-25T02:15:35.350Z,43.30
2022-11-25T02:18:06.493Z,45.40
2022-11-25T02:20:35.041Z,47.80
2022-11-25T02:23:31.147Z,41.90
2022-11-25T02:26:00.922Z,42.20
2022-11-25T02:28:30.955Z,40.10
2022-11-25T02:30:59.891Z,40.80
2022-11-25T02:33:28.717Z,40.40
2022-11-25T02:36:01.881Z,41.10
2022-11-25T02:38:50.863Z,40.70
2022-11-25T02:41:25.349Z,40.90
2022-11-25T02:43:57.076Z,44.00
2022-11-25T02:46:27.549Z,42.00
2022-11-25T02:49:08.879Z,41.60
2022-11-25T02:51:39.159Z,43.50
2022-11-25T02:54:07.643Z,39.50
2022-11-25T02:56:36.960Z,43.80
2022-11-25T02:59:05.412Z,41.30
2022-11-25T03:01:35.505Z,40.50
2022-11-25T03:04:06.764Z,37.90
2022-11-25T03:06:35.237Z,40.00
2022-11-25T03:09:03.688Z,42.20
2022-11-25T03:11:50.601Z,41.00
2022-11-25T03:14:19.082Z,38.90
2022-11-25T03:16:47.455Z,41.50
2022-11-25T03:19:15.847Z,37.70
2022-11-25T03:21:44.287Z,38.10
2022-11-25T03:24:12.705Z,34.90
2022-11-25T03:26:40.964Z,35.80
2022-11-25T03:29:09.492Z,34.70
2022-11-25T03:31:38.742Z,36.80
2022-11-25T03:34:09.636Z,34.70
2022-11-25T03:36:38.223Z,38.40
2022-11-25T03:39:07.059Z,36.60
2022-11-25T03:41:35.959Z,35.30
2022-11-25T03:44:04.292Z,36.70
2022-11-25T03:46:32.791Z,38.00
2022-11-25T03:49:02.189Z,36.60
2022-11-25T03:51:30.897Z,35.30
2022-11-25T03:54:00.227Z,35.20
2022-11-25T03:56:28.600Z,34.30
2022-11-25T03:58:57.855Z,35.00
2022-11-25T04:01:26.463Z,34.80
2022-11-25T04:03:54.836Z,33.90
2022-11-25T04:06:24.071Z,34.60
2022-11-25T04:08:53.044Z,34.80
2022-11-25T04:11:22.375Z,33.90
2022-11-25T04:13:52.008Z,33.90
2022-11-25T04:16:25.096Z,35.90
2022-11-25T04:18:53.740Z,34.80
2022-11-25T04:21:22.035Z,33.60
2022-11-25T04:23:51.529Z,33.70
2022-11-25T04:26:19.904Z,38.00
2022-11-25T04:28:48.215Z,37.10
2022-11-25T04:31:16.618Z,36.90
2022-11-25T04:33:48.449Z,39.20
2022-11-25T04:36:21.026Z,38.70
2022-11-25T04:38:49.922Z,37.90
2022-11-25T04:41:19.117Z,40.20
2022-11-25T04:43:47.404Z,42.00
2022-11-25T04:46:23.078Z,38.50
2022-11-25T04:48:52.295Z,35.50
2022-11-25T04:51:20.984Z,36.90
2022-11-25T04:53:51.751Z,38.10
2022-11-25T04:56:20.805Z,37.00
2022-11-25T04:59:09.583Z,36.40
2022-11-25T05:01:41.009Z,39.80
2022-11-25T05:04:29.714Z,37.20
2022-11-25T05:06:57.999Z,39.70
2022-11-25T05:09:26.320Z,37.90
2022-11-25T05:12:05.848Z,37.60
2022-11-25T05:14:36.006Z,36.80
2022-11-25T05:17:06.098Z,34.40
2022-11-25T05:19:36.585Z,38.40
2022-11-25T05:22:04.911Z,37.80
2022-11-25T05:24:34.586Z,33.70
2022-11-25T05:27:03.975Z,34.10
2022-11-25T05:29:32.472Z,33.70
2022-11-25T05:32:01.011Z,34.40
2022-11-25T05:34:29.471Z,33.80
2022-11-25T05:36:58.129Z,33.90
2022-11-25T05:39:26.649Z,31.80
2022-11-25T05:42:17.459Z,31.20
2022-11-25T05:44:46.380Z,31.00
2022-11-25T05:47:14.711Z,31.30
2022-11-25T05:49:43.126Z,31.20
2022-11-25T05:52:11.419Z,31.70
2022-11-25T05:54:46.879Z,31.70
2022-11-25T05:57:15.174Z,31.20
2022-11-25T05:59:48.501Z,31.00
2022-11-25T06:02:22.719Z,29.90
2022-11-25T06:04:52.393Z,31.10
2022-11-25T06:07:20.719Z,29.10
2022-11-25T06:09:50.722Z,32.60
2022-11-25T06:12:21.885Z,34.70
2022-11-25T06:14:51.396Z,37.60
2022-11-25T06:17:19.723Z,37.40
2022-11-25T06:19:56.428Z,34.70
2022-11-25T06:22:25.489Z,39.70
2022-11-25T06:25:00.474Z,40.30
2022-11-25T06:27:56.834Z,39.40
2022-11-25T06:30:20.751Z,45.60
2022-11-25T06:32:59.453Z,44.10
2022-11-25T06:35:27.759Z,36.50
2022-11-25T06:37:59.387Z,45.20
2022-11-25T06:40:27.752Z,37.70
2022-11-25T06:42:56.069Z,41.20
2022-11-25T06:45:24.316Z,37.80
2022-11-25T06:47:52.938Z,30.60
2022-11-25T06:50:21.295Z,34.10
2022-11-25T06:52:49.498Z,35.50
2022-11-25T06:55:17.899Z,32.60
2022-11-25T06:57:46.143Z,32.80
2022-11-25T07:00:14.767Z,38.90
2022-11-25T07:02:48.382Z,41.10
2022-11-25T07:05:17.393Z,41.20
2022-11-25T07:07:45.756Z,59.60
2022-11-25T07:10:14.071Z,46.70
2022-11-25T07:12:42.409Z,43.20
2022-11-25T07:15:10.911Z,47.60
2022-11-25T07:17:39.156Z,42.00
2022-11-25T07:20:08.252Z,42.00
2022-11-25T07:22:36.524Z,43.50
2022-11-25T07:25:04.960Z,44.70
2022-11-25T07:27:33.368Z,40.10
2022-11-25T07:30:54.478Z,39.60
2022-11-25T07:32:49.991Z,38.60
2022-11-25T07:35:18.347Z,38.10
2022-11-25T07:37:46.645Z,41.20
2022-11-25T07:40:14.964Z,41.00
2022-11-25T07:42:43.264Z,40.10
2022-11-25T07:45:11.516Z,35.60
2022-11-25T07:47:45.946Z,39.30
2022-11-25T07:50:14.212Z,42.40
2022-11-25T07:52:42.594Z,42.00
2022-11-25T07:55:10.936Z,40.40
2022-11-25T07:57:39.124Z,39.90
2022-11-25T08:00:07.908Z,38.30
2022-11-25T08:02:42.055Z,35.80
2022-11-25T08:05:11.971Z,33.90
2022-11-25T08:07:41.046Z,33.10
2022-11-25T08:10:10.005Z,34.90
2022-11-25T08:12:39.401Z,34.40
2022-11-25T08:15:10.875Z,32.70
2022-11-25T08:17:39.230Z,31.10
2022-11-25T08:20:09.231Z,31.60
2022-11-25T08:22:37.528Z,33.20
2022-11-25T08:25:09.256Z,31.20
2022-11-25T08:27:42.661Z,32.10
2022-11-25T08:30:16.329Z,33.30
2022-11-25T08:32:46.583Z,32.00
2022-11-25T08:35:15.175Z,33.20
2022-11-25T08:37:43.633Z,31.00
2022-11-25T08:40:12.632Z,31.20
2022-11-25T08:42:41.164Z,35.00
2022-11-25T08:45:12.664Z,37.20
2022-11-25T08:47:41.022Z,39.60
2022-11-25T08:50:15.545Z,44.40
2022-11-25T08:52:44.462Z,49.10
2022-11-25T08:55:13.909Z,49.70
2022-11-25T08:57:42.363Z,46.20
2022-11-25T09:00:13.651Z,46.60
2022-11-25T09:02:42.458Z,44.50
2022-11-25T09:05:16.458Z,42.20
2022-11-25T09:07:45.831Z,41.20
2022-11-25T09:10:25.043Z,40.30
2022-11-25T09:12:54.844Z,39.20
2022-11-25T09:15:23.166Z,37.50
2022-11-25T09:18:01.864Z,36.80
2022-11-25T09:20:32.582Z,42.70
2022-11-25T09:23:02.271Z,47.00
2022-11-25T09:25:36.841Z,42.40
2022-11-25T09:28:05.703Z,45.50
2022-11-25T09:30:45.049Z,60.20
2022-11-25T09:33:14.008Z,109.70
2022-11-25T09:35:43.146Z,47.70
2022-11-25T09:38:16.078Z,42.80
2022-11-25T09:41:01.037Z,39.70
2022-11-25T09:44:01.669Z,39.40
2022-11-25T09:46:46.256Z,53.50
2022-11-25T09:49:46.742Z,50.20
2022-11-25T09:52:32.411Z,51.60
2022-11-25T09:55:07.340Z,52.90
2022-11-25T09:57:59.772Z,49.90
2022-11-25T10:00:44.036Z,56.30
2022-11-25T10:03:43.102Z,52.20
2022-11-25T10:06:20.615Z,48.20
2022-11-25T10:08:53.574Z,46.90
2022-11-25T10:11:26.883Z,46.50
2022-11-25T10:13:58.897Z,43.50
2022-11-25T10:16:48.592Z,41.90
2022-11-25T10:19:38.296Z,38.80
2022-11-25T10:22:44.233Z,40.70
2022-11-25T10:25:25.488Z,39.80
2022-11-25T10:28:02.088Z,38.70
2022-11-25T10:30:51.060Z,43.50
2022-11-25T10:33:28.713Z,41.70
2022-11-25T10:36:15.731Z,43.30
2022-11-25T10:38:55.728Z,41.70
2022-11-25T10:41:28.533Z,44.40
2022-11-25T10:43:57.441Z,45.30
2022-11-25T10:47:12.961Z,42.80
2022-11-25T10:49:59.821Z,44.50
2022-11-25T10:52:30.816Z,45.50
2022-11-25T10:55:09.796Z,42.00
2022-11-25T10:57:38.234Z,44.40
2022-11-25T11:00:12.760Z,46.70
2022-11-25T11:02:48.361Z,46.80
2022-11-25T11:05:23.020Z,43.70
2022-11-25T11:08:17.193Z,42.60
2022-11-25T11:10:47.137Z,52.90
2022-11-25T11:13:33.282Z,58.00
2022-11-25T11:16:01.712Z,49.80
2022-11-25T11:18:36.414Z,48.20
2022-11-25T11:21:29.802Z,44.00
2022-11-25T11:23:59.985Z,48.60
2022-11-25T11:26:36.055Z,103.90
2022-11-25T11:29:17.113Z,75.00
2022-11-25T11:31:49.355Z,64.60
2022-11-25T11:34:38.812Z,69.70
2022-11-25T11:37:32.747Z,54.80
2022-11-25T11:40:19.640Z,51.00
2022-11-25T11:42:54.943Z,41.20
2022-11-25T11:46:08.331Z,43.80
2022-11-25T11:48:53.436Z,45.10
2022-11-25T11:51:31.690Z,43.60
2022-11-25T11:54:34.225Z,51.10
2022-11-25T11:57:14.994Z,51.40
2022-11-25T11:59:49.413Z,54.60
2022-11-25T12:02:48.228Z,52.90
2022-11-25T12:05:22.055Z,60.00
2022-11-25T12:08:09.616Z,57.10
2022-11-25T12:10:58.771Z,57.70
2022-11-25T12:13:50.464Z,53.50
2022-11-25T12:16:34.287Z,49.00
2022-11-25T12:19:18.897Z,36.70
2022-11-25T12:21:55.517Z,33.30
2022-11-25T12:24:32.294Z,31.00
2022-11-25T12:27:07.078Z,32.60
2022-11-25T12:29:48.123Z,35.90
2022-11-25T12:32:38.030Z,58.10
2022-11-25T12:35:06.732Z,62.30
2022-11-25T12:38:15.360Z,59.30
2022-11-25T12:41:02.541Z,59.10
2022-11-25T12:43:47.734Z,56.90
2022-11-25T12:46:16.463Z,56.60
2022-11-25T12:48:45.170Z,52.10
2022-11-25T12:51:42.639Z,56.00
2022-11-25T12:54:21.052Z,57.20
2022-11-25T12:57:07.734Z,42.70
2022-11-25T13:00:39.416Z,32.90
2022-11-25T13:03:18.008Z,32.30
2022-11-25T13:06:18.827Z,31.80
2022-11-25T13:09:08.632Z,29.50
2022-11-25T13:12:15.038Z,32.00
2022-11-25T13:14:56.110Z,28.80
2022-11-25T13:17:30.041Z,30.60
2022-11-25T13:20:39.573Z,28.80
2022-11-25T13:23:24.440Z,37.20
2022-11-25T13:26:14.423Z,39.30
2022-11-25T13:28:42.945Z,34.30
2022-11-25T13:31:14.411Z,30.80
2022-11-25T13:33:48.830Z,34.10
2022-11-25T13:36:23.283Z,34.10
2022-11-25T13:38:52.271Z,38.40
2022-11-25T13:41:24.701Z,46.70
2022-11-25T13:43:53.757Z,47.90
2022-11-25T13:46:47.638Z,46.60
2022-11-25T13:49:55.962Z,46.30
2022-11-25T13:52:43.259Z,62.40
2022-11-25T13:55:17.333Z,64.10
2022-11-25T13:58:02.379Z,52.30
2022-11-25T14:00:34.964Z,47.90
2022-11-25T14:03:25.031Z,48.10
2022-11-25T14:05:58.181Z,47.90
2022-11-25T14:08:41.157Z,66.60
2022-11-25T14:11:09.779Z,60.00
2022-11-25T14:14:00.004Z,54.30
2022-11-25T14:17:14.704Z,51.00
2022-11-25T14:20:20.653Z,53.20
2022-11-25T14:23:22.209Z,64.90
2022-11-25T14:25:55.454Z,50.00
2022-11-25T14:28:40.101Z,50.60
2022-11-25T14:31:16.411Z,44.50
2022-11-25T14:33:57.266Z,47.20
2022-11-25T14:36:31.805Z,48.20
2022-11-25T14:39:06.476Z,46.60
2022-11-25T14:42:08.296Z,52.10
2022-11-25T14:44:50.178Z,56.50
2022-11-25T14:47:27.455Z,56.00
2022-11-25T14:52:48.014Z,63.50
2022-11-25T14:55:30.366Z,62.70
2022-11-25T14:57:58.931Z,56.10
2022-11-25T15:00:27.605Z,53.40
2022-11-25T15:03:01.950Z,49.80
2022-11-25T15:05:34.957Z,48.30
2022-11-25T15:08:17.958Z,51.60
2022-11-25T15:11:01.385Z,51.10
2022-11-25T15:13:32.694Z,49.60
2022-11-25T15:16:13.870Z,46.00
2022-11-25T15:18:57.521Z,46.90
2022-11-25T15:21:53.790Z,54.40
2022-11-25T15:24:30.693Z,50.60
2022-11-25T15:27:03.860Z,57.10
2022-11-25T15:29:41.190Z,56.10
2022-11-25T15:32:16.431Z,148.70
2022-11-25T15:34:49.455Z,144.70
2022-11-25T15:37:18.196Z,198.80
2022-11-25T15:39:48.740Z,161.00
2022-11-25T15:42:26.681Z,84.10
2022-11-25T15:45:07.030Z,71.70
2022-11-25T15:47:37.084Z,88.70
2022-11-25T15:50:24.948Z,111.80
2022-11-25T15:52:57.152Z,127.60
2022-11-25T15:55:38.084Z,130.20
2022-11-25T15:58:20.188Z,159.40
2022-11-25T16:01:03.701Z,134.10
2022-11-25T16:03:33.732Z,96.90
2022-11-25T16:06:02.664Z,77.00
2022-11-25T16:08:36.575Z,78.80
2022-11-25T16:11:12.594Z,79.60
2022-11-25T16:13:41.883Z,80.50
2022-11-25T16:16:12.781Z,71.30
2022-11-25T16:19:02.211Z,70.80
2022-11-25T16:21:56.532Z,89.70
2022-11-25T16:24:38.339Z,74.20
2022-11-25T16:27:15.104Z,69.00
2022-11-25T16:29:58.413Z,61.90
2022-11-25T16:32:29.254Z,63.40
2022-11-25T16:35:22.360Z,63.40
2022-11-25T16:37:51.146Z,62.10
2022-11-25T16:40:19.640Z,67.40
2022-11-25T16:42:50.089Z,73.60
2022-11-25T16:45:27.489Z,109.80
2022-11-25T16:47:55.791Z,120.80
2022-11-25T16:50:24.422Z,94.50
2022-11-25T16:52:56.276Z,85.40
2022-11-25T16:55:25.364Z,97.50
2022-11-25T16:57:54.429Z,126.10
2022-11-25T17:00:22.844Z,126.10
2022-11-25T17:02:51.299Z,112.90
2022-11-25T17:05:21.948Z,111.50
2022-11-25T17:07:51.141Z,101.80
2022-11-25T17:10:20.884Z,93.50
2022-11-25T17:12:52.139Z,95.50
2022-11-25T17:15:29.394Z,102.00
2022-11-25T17:17:58.731Z,104.20
2022-11-25T17:20:27.694Z,105.40
2022-11-25T17:22:58.981Z,114.40
2022-11-25T17:25:31.082Z,111.70
2022-11-25T17:28:07.228Z,108.10
2022-11-25T17:30:38.728Z,106.60
2022-11-25T17:33:19.096Z,102.50
2022-11-25T17:35:47.667Z,100.60
2022-11-25T17:38:19.676Z,93.40
2022-11-25T17:40:48.241Z,95.80
2022-11-25T17:43:19.260Z,93.00
2022-11-25T17:45:47.868Z,90.00
2022-11-25T17:48:17.868Z,90.80
2022-11-25T17:50:48.304Z,91.00
2022-11-25T17:53:16.591Z,91.20
2022-11-25T17:55:44.902Z,93.40
2022-11-25T17:58:19.290Z,95.70
2022-11-25T18:00:48.981Z,91.00
2022-11-25T18:03:17.487Z,89.20
2022-11-25T18:05:46.289Z,88.50
2022-11-25T18:08:15.161Z,89.10
2022-11-25T18:10:46.443Z,91.10
2022-11-25T18:13:16.470Z,88.90
2022-11-25T18:15:45.844Z,79.50
2022-11-25T18:18:25.630Z,84.10
2022-11-25T18:20:54.334Z,81.90
2022-11-25T18:23:24.084Z,90.00
2022-11-25T18:25:58.065Z,85.10
2022-11-25T18:28:28.865Z,80.40
2022-11-25T18:31:01.020Z,86.50
2022-11-25T18:33:30.183Z,84.40
2022-11-25T18:35:58.598Z,77.40
2022-11-25T18:38:32.256Z,77.90
2022-11-25T18:41:06.251Z,77.00
2022-11-25T18:43:35.210Z,78.70
2022-11-25T18:46:09.491Z,78.80
2022-11-25T18:48:40.646Z,82.10
2022-11-25T18:51:11.861Z,81.00
2022-11-25T18:53:40.181Z,80.00
2022-11-25T18:56:17.711Z,77.00
2022-11-25T18:58:50.779Z,80.00
2022-11-25T19:01:22.276Z,83.10
2022-11-25T19:03:51.259Z,91.50
2022-11-25T19:06:24.725Z,95.30
2022-11-25T19:08:53.319Z,96.70
2022-11-25T19:11:43.534Z,88.80
2022-11-25T19:14:29.055Z,76.10
2022-11-25T19:17:02.795Z,77.20
2022-11-25T19:19:39.568Z,79.10
2022-11-25T19:22:22.984Z,71.30
2022-11-25T19:24:52.218Z,76.50
2022-11-25T19:27:24.064Z,71.90
2022-11-25T19:29:54.614Z,71.30
2022-11-25T19:32:29.527Z,75.40
2022-11-25T19:35:03.147Z,80.00
2022-11-25T19:37:31.966Z,82.10
2022-11-25T19:40:03.088Z,80.20
2022-11-25T19:42:33.675Z,73.80
2022-11-25T19:45:12.303Z,69.50
2022-11-25T19:47:40.647Z,75.20
2022-11-25T19:50:22.738Z,104.20
2022-11-25T19:52:52.386Z,86.20
2022-11-25T19:55:25.973Z,81.90
2022-11-25T19:57:57.689Z,83.80
2022-11-25T20:00:27.016Z,79.70
2022-11-25T20:02:56.349Z,78.80
2022-11-25T20:05:33.369Z,81.20
2022-11-25T20:08:01.864Z,87.80
2022-11-25T20:10:33.483Z,84.70
2022-11-25T20:13:01.811Z,79.30
2022-11-25T20:15:31.031Z,79.30
2022-11-25T20:18:01.640Z,92.10
2022-11-25T20:20:39.367Z,92.40
2022-11-25T20:23:17.143Z,95.80
2022-11-25T20:25:50.060Z,93.80
2022-11-25T20:28:27.072Z,97.50
2022-11-25T20:31:02.870Z,92.80
2022-11-25T20:33:33.449Z,93.90
2022-11-25T20:36:14.180Z,95.30
2022-11-25T20:38:48.422Z,96.60
2022-11-25T20:41:18.414Z,105.10
2022-11-25T20:43:50.518Z,100.60
2022-11-25T20:46:23.133Z,87.70
2022-11-25T20:48:56.844Z,87.40
2022-11-25T20:51:33.251Z,81.50
2022-11-25T20:54:01.781Z,89.10
2022-11-25T20:56:30.566Z,89.30
2022-11-25T20:59:02.129Z,89.80
2022-11-25T21:01:30.575Z,90.50
2022-11-25T21:03:58.912Z,92.80
2022-11-25T21:06:30.298Z,105.20
2022-11-25T21:09:01.268Z,99.00
2022-11-25T21:11:33.064Z,90.80
2022-11-25T21:14:01.663Z,89.80
2022-11-25T21:16:30.179Z,90.40
2022-11-25T21:19:03.883Z,91.80
2022-11-25T21:21:35.973Z,93.60
2022-11-25T21:24:24.000Z,88.40
2022-11-25T21:26:52.454Z,91.40
2022-11-25T21:29:20.956Z,87.20
2022-11-25T21:31:49.599Z,66.60
2022-11-25T21:34:18.040Z,55.70
2022-11-25T21:36:49.239Z,53.80
2022-11-25T21:39:23.592Z,49.10
2022-11-25T21:41:52.407Z,47.30
2022-11-25T21:44:28.811Z,44.60
2022-11-25T21:46:57.227Z,41.60
2022-11-25T21:49:26.668Z,40.70
2022-11-25T21:51:55.575Z,40.30
2022-11-25T21:54:23.976Z,40.30
2022-11-25T21:56:52.404Z,37.20
2022-11-25T21:59:21.134Z,33.70
2022-11-25T22:01:49.487Z,33.70
2022-11-25T22:04:21.312Z,31.70
2022-11-25T22:06:57.368Z,33.80
2022-11-25T22:09:28.342Z,37.90
2022-11-25T22:12:02.421Z,41.50
2022-11-25T22:14:40.883Z,39.60
2022-11-25T22:17:18.137Z,33.00
2022-11-25T22:19:51.055Z,32.80
2022-11-25T22:22:25.489Z,30.10
2022-11-25T22:24:56.642Z,30.70
2022-11-25T22:27:29.855Z,33.00
2022-11-25T22:30:02.446Z,31.10
2022-11-25T22:32:33.120Z,32.10
2022-11-25T22:35:06.046Z,32.00
2022-11-25T22:37:35.213Z,29.60
2022-11-25T22:40:05.346Z,28.30
2022-11-25T22:42:33.864Z,29.10
2022-11-25T22:45:07.414Z,32.50
2022-11-25T22:47:41.017Z,33.60
2022-11-25T22:50:29.074Z,29.90
2022-11-25T22:52:58.631Z,30.30
2022-11-25T22:55:32.206Z,34.60
2022-11-25T22:58:01.800Z,33.70
2022-11-25T23:00:37.535Z,31.10
2022-11-25T23:03:20.468Z,29.60
2022-11-25T23:05:51.429Z,28.70
2022-11-25T23:08:24.001Z,27.70
2022-11-25T23:10:59.020Z,26.60
2022-11-25T23:13:27.313Z,23.60
2022-11-25T23:15:58.810Z,24.40
2022-11-25T23:18:41.028Z,20.80
2022-11-25T23:21:27.944Z,23.10
2022-11-25T23:23:57.129Z,25.80
2022-11-25T23:26:35.021Z,27.00
2022-11-25T23:29:03.960Z,29.50
2022-11-25T23:31:38.208Z,31.10
2022-11-25T23:34:12.601Z,27.70
2022-11-25T23:36:46.394Z,26.20
2022-11-25T23:39:24.419Z,23.90
2022-11-25T23:41:54.312Z,22.10
2022-11-25T23:44:29.632Z,21.50
2022-11-25T23:47:20.407Z,26.20
2022-11-25T23:49:52.300Z,23.90
2022-11-25T23:52:24.335Z,21.70
2022-11-25T23:54:53.179Z,20.10
2022-11-25T23:57:24.763Z,21.00
2022-11-25T23:59:53.933Z,24.10
